Time;durP1;ratioP1;P1;durP2;ratioP2;P2;SDS_P1;SDS_P2;PMS_P1;PMS_P2;Temp;Humidity;BMP_temperature;BMP_pressure;BME280_temperature;BME280_humidity;BME280_pressure;Samples;Min_cycle;Max_cycle;Signal;HPM_P1;HPM_P2
2021/07/05 00:00:10;;;;;;;4.68;2.63;;;;;22.00;100716.00;;;;5068959;28;20715;-84
2021/07/05 00:02:37;;;;;;;3.05;2.58;;;;;22.00;100716.00;;;;5070905;28;20598;-84
2021/07/05 00:05:06;;;;;;;3.70;3.08;;;;;22.00;100725.00;;;;5070003;28;20202;-84
2021/07/05 00:07:35;;;;;;;5.35;3.17;;;;;22.00;100731.00;;;;5068864;28;20199;-85
2021/07/05 00:10:03;;;;;;;4.68;3.47;;;;;22.00;100736.00;;;;5068968;28;20194;-84
2021/07/05 00:12:30;;;;;;;4.40;3.53;;;;;22.10;100741.00;;;;5068477;28;20194;-85
2021/07/05 00:14:59;;;;;;;5.05;2.90;;;;;22.00;100743.00;;;;5073126;28;20496;-85
2021/07/05 00:17:26;;;;;;;4.95;3.40;;;;;22.10;100747.00;;;;5082339;28;20225;-84
2021/07/05 00:19:53;;;;;;;5.00;3.13;;;;;22.10;100744.00;;;;5093070;28;20221;-84
2021/07/05 00:22:21;;;;;;;4.80;2.92;;;;;22.10;100737.00;;;;5091771;28;20305;-84
2021/07/05 00:24:49;;;;;;;5.88;3.00;;;;;22.10;100739.00;;;;5085692;28;20672;-85
2021/07/05 00:27:16;;;;;;;3.50;3.13;;;;;22.10;100746.00;;;;5072315;28;20199;-85
2021/07/05 00:29:44;;;;;;;3.28;2.85;;;;;22.20;100744.00;;;;5071798;28;20207;-84
2021/07/05 00:32:11;;;;;;;3.78;3.15;;;;;22.20;100749.00;;;;5074664;28;20198;-85
2021/07/05 00:34:38;;;;;;;4.40;3.05;;;;;22.20;100752.00;;;;5071758;28;20222;-85
2021/07/05 00:37:05;;;;;;;3.38;3.08;;;;;22.20;100746.00;;;;5071799;28;21041;-87
2021/07/05 00:39:33;;;;;;;5.18;3.92;;;;;22.20;100736.00;;;;5072142;28;20225;-86
2021/07/05 00:42:01;;;;;;;3.60;3.25;;;;;22.20;100736.00;;;;5072987;28;20213;-86
2021/07/05 00:44:29;;;;;;;3.55;3.20;;;;;22.20;100723.00;;;;5072001;28;20210;-85
2021/07/05 00:46:56;;;;;;;4.88;3.63;;;;;22.30;100728.00;;;;5077376;28;20190;-86
2021/07/05 00:49:23;;;;;;;3.90;3.60;;;;;22.30;100723.00;;;;5087157;28;20199;-86
2021/07/05 00:51:50;;;;;;;4.25;3.20;;;;;22.30;100712.00;;;;5082504;28;20209;-86
2021/07/05 00:54:18;;;;;;;4.15;3.15;;;;;22.30;100710.00;;;;5085822;28;20213;-86
2021/07/05 00:56:45;;;;;;;3.78;3.35;;;;;22.40;100710.00;;;;5085204;28;20199;-86
2021/07/05 00:59:15;;;;;;;3.53;3.22;;;;;22.30;100708.00;;;;5091797;28;20194;-86
2021/07/05 01:01:42;;;;;;;4.63;3.47;;;;;22.40;100706.00;;;;5088192;28;20594;-86
2021/07/05 01:04:09;;;;;;;3.75;3.22;;;;;22.40;100699.00;;;;5072788;28;20211;-86
2021/07/05 01:06:36;;;;;;;3.78;3.38;;;;;22.40;100700.00;;;;5072241;28;20226;-86
2021/07/05 01:09:05;;;;;;;3.47;3.03;;;;;22.50;100691.00;;;;5098446;28;20884;-86
2021/07/05 01:11:32;;;;;;;3.58;3.25;;;;;22.50;100692.00;;;;5080378;28;20210;-86
2021/07/05 01:13:59;;;;;;;3.85;3.45;;;;;22.50;100687.00;;;;5071373;28;20211;-85
2021/07/05 01:16:28;;;;;;;3.88;3.35;;;;;22.50;100682.00;;;;5071570;28;20222;-85
2021/07/05 01:18:57;;;;;;;4.80;2.97;;;;;22.50;100676.00;;;;5071308;28;20571;-85
2021/07/05 01:21:26;;;;;;;3.63;3.30;;;;;22.50;100675.00;;;;5070781;28;20585;-86
2021/07/05 01:23:53;;;;;;;4.50;4.00;;;;;22.50;100679.00;;;;5071431;28;20680;-86
2021/07/05 01:26:20;;;;;;;3.13;2.88;;;;;22.50;100663.00;;;;5071749;28;20206;-86
2021/07/05 01:28:48;;;;;;;3.80;3.45;;;;;22.50;100675.00;;;;5070577;28;20202;-86
2021/07/05 01:31:15;;;;;;;5.35;3.22;;;;;22.50;100676.00;;;;5071509;28;20828;-86
2021/07/05 01:33:42;;;;;;;3.55;3.22;;;;;22.50;100675.00;;;;5072687;28;20227;-85
2021/07/05 01:36:11;;;;;;;5.28;3.65;;;;;22.50;100672.00;;;;5071310;28;20195;-85
2021/07/05 01:38:42;;;;;;;3.97;3.35;;;;;22.50;100676.00;;;;5070817;28;20213;-86
2021/07/05 01:41:10;;;;;;;4.07;3.40;;;;;22.50;100670.00;;;;5071273;28;20601;-86
2021/07/05 01:43:37;;;;;;;4.70;3.10;;;;;22.50;100666.00;;;;5072539;28;20206;-86
2021/07/05 01:46:05;;;;;;;3.83;3.20;;;;;22.50;100663.00;;;;5079697;28;20205;-86
2021/07/05 01:48:32;;;;;;;4.50;3.17;;;;;22.50;100663.00;;;;5077072;28;20256;-85
2021/07/05 01:50:59;;;;;;;3.25;2.95;;;;;22.50;100660.00;;;;5070379;28;20206;-86
2021/07/05 01:53:27;;;;;;;5.20;3.08;;;;;22.50;100666.00;;;;5073386;28;20203;-86
2021/07/05 01:55:56;;;;;;;3.72;3.33;;;;;22.50;100664.00;;;;5082824;28;20680;-85
2021/07/05 01:58:23;;;;;;;3.40;3.10;;;;;22.50;100663.00;;;;5071240;28;20209;-86
2021/07/05 02:00:52;;;;;;;4.53;3.28;;;;;22.60;100664.00;;;;5070726;28;20235;-85
2021/07/05 02:03:19;;;;;;;4.18;3.28;;;;;22.60;100665.00;;;;5078111;28;20222;-85
2021/07/05 02:05:47;;;;;;;4.40;3.13;;;;;22.60;100666.00;;;;5070384;28;20214;-85
2021/07/05 02:08:17;;;;;;;3.00;2.70;;;;;22.60;100669.00;;;;5070842;28;20203;-85
2021/07/05 02:10:45;;;;;;;2.97;2.72;;;;;22.60;100661.00;;;;5070387;28;20210;-85
2021/07/05 02:13:17;;;;;;;2.97;2.70;;;;;22.60;100671.00;;;;5070518;28;20199;-85
2021/07/05 02:15:46;;;;;;;3.10;2.80;;;;;22.60;100682.00;;;;5083977;28;20203;-85
2021/07/05 02:18:14;;;;;;;3.20;2.67;;;;;22.60;100677.00;;;;5071995;28;20217;-85
2021/07/05 02:20:41;;;;;;;3.67;2.60;;;;;22.60;100673.00;;;;5070033;28;20699;-85
2021/07/05 02:23:12;;;;;;;3.50;2.75;;;;;22.60;100673.00;;;;5070893;28;20210;-85
2021/07/05 02:25:40;;;;;;;6.30;3.15;;;;;22.70;100671.00;;;;5070391;28;20209;-84
2021/07/05 02:28:10;;;;;;;3.53;2.85;;;;;22.60;100668.00;;;;5070212;28;20199;-84
2021/07/05 02:30:39;;;;;;;4.28;2.78;;;;;22.60;100667.00;;;;5070356;28;20191;-85
2021/07/05 02:33:07;;;;;;;4.05;2.67;;;;;22.60;100664.00;;;;5081226;28;20241;-85
2021/07/05 02:35:36;;;;;;;4.20;2.72;;;;;22.60;100663.00;;;;5075694;28;20225;-85
2021/07/05 02:38:04;;;;;;;2.83;2.42;;;;;22.60;100669.00;;;;5069603;28;20206;-85
2021/07/05 02:40:34;;;;;;;3.65;3.15;;;;;22.60;100671.00;;;;5069456;28;20226;-84
2021/07/05 02:43:01;;;;;;;3.50;2.47;;;;;22.60;100677.00;;;;5070175;28;20285;-85
2021/07/05 02:45:30;;;;;;;2.47;1.88;;;;;22.60;100674.00;;;;5075103;28;20209;-84
2021/07/05 02:48:00;;;;;;;3.05;1.75;;;;;22.60;100674.00;;;;5085922;28;20204;-84
2021/07/05 02:50:28;;;;;;;3.90;2.10;;;;;22.60;100668.00;;;;5082339;28;20194;-84
2021/07/05 02:52:57;;;;;;;2.55;2.05;;;;;22.60;100682.00;;;;5084333;28;20199;-85
2021/07/05 02:55:24;;;;;;;4.00;1.92;;;;;22.60;100685.00;;;;5069550;28;20219;-85
2021/07/05 02:57:52;;;;;;;3.00;2.30;;;;;22.60;100687.00;;;;5069031;28;20199;-85
2021/07/05 03:00:22;;;;;;;1.75;1.60;;;;;22.50;100690.00;;;;5069191;28;20215;-85
2021/07/05 03:02:50;;;;;;;4.50;1.52;;;;;22.50;100695.00;;;;5075629;28;20234;-85
2021/07/05 03:05:21;;;;;;;3.78;1.90;;;;;22.40;100689.00;;;;5067974;28;20199;-82
2021/07/05 03:07:49;;;;;;;5.50;1.67;;;;;22.40;100694.00;;;;5070882;28;20206;-81
2021/07/05 03:10:18;;;;;;;3.58;1.65;;;;;22.40;100697.00;;;;5068866;28;20203;-82
2021/07/05 03:12:46;;;;;;;1.83;1.63;;;;;22.40;100701.00;;;;5067640;28;20195;-83
2021/07/05 03:15:15;;;;;;;2.70;1.60;;;;;22.30;100697.00;;;;5069296;28;20210;-83
2021/07/05 03:17:44;;;;;;;3.15;1.40;;;;;22.30;100695.00;;;;5084052;28;20225;-83
2021/07/05 03:20:13;;;;;;;2.88;1.60;;;;;22.20;100681.00;;;;5081015;28;20222;-82
2021/07/05 03:22:43;;;;;;;2.47;1.30;;;;;22.20;100688.00;;;;5074881;28;20203;-82
2021/07/05 03:25:12;;;;;;;4.43;1.75;;;;;22.20;100689.00;;;;5067759;28;20207;-82
2021/07/05 03:27:40;;;;;;;3.33;1.50;;;;;22.20;100681.00;;;;5068954;28;20195;-82
2021/07/05 03:30:11;;;;;;;0.93;0.73;;;;;22.10;100695.00;;;;5067230;28;20203;-82
2021/07/05 03:32:38;;;;;;;4.03;1.35;;;;;22.10;100699.00;;;;5069176;28;20182;-82
2021/07/05 03:35:07;;;;;;;1.73;1.10;;;;;22.10;100695.00;;;;5068595;28;20202;-81
2021/07/05 03:37:35;;;;;;;2.22;1.20;;;;;22.10;100693.00;;;;5068066;28;20202;-82
2021/07/05 03:40:05;;;;;;;2.88;1.17;;;;;22.10;100691.00;;;;5069298;28;20225;-82
2021/07/05 03:42:32;;;;;;;2.25;0.88;;;;;22.10;100688.00;;;;5068242;28;20194;-82
2021/07/05 03:45:00;;;;;;;2.03;1.35;;;;;22.10;100683.00;;;;5068445;28;20210;-83
2021/07/05 03:47:27;;;;;;;3.45;1.20;;;;;22.10;100683.00;;;;5072001;28;20204;-82
2021/07/05 03:49:55;;;;;;;1.65;1.10;;;;;22.00;100683.00;;;;5067920;28;20191;-82
2021/07/05 03:52:22;;;;;;;9.25;1.20;;;;;22.00;100669.00;;;;5069214;28;20199;-83
2021/07/05 03:54:49;;;;;;;2.40;0.90;;;;;22.00;100672.00;;;;5067316;28;20211;-82
2021/07/05 03:57:25;;;;;;;2.55;1.05;;;;;22.00;100665.00;;;;5070518;28;20612;-82
2021/07/05 03:59:54;;;;;;;4.57;1.00;;;;;22.00;100661.00;;;;5082498;28;20204;-82
2021/07/05 04:02:23;;;;;;;2.95;1.20;;;;;22.00;100683.00;;;;5072154;28;20206;-82
2021/07/05 04:04:51;;;;;;;2.42;1.13;;;;;22.00;100687.00;;;;5067394;28;20207;-82
2021/07/05 04:07:19;;;;;;;4.50;1.20;;;;;22.00;100689.00;;;;5071276;28;20689;-82
2021/07/05 04:09:47;;;;;;;1.45;1.20;;;;;21.90;100690.00;;;;5086027;28;20194;-82
2021/07/05 04:12:19;;;;;;;2.55;1.20;;;;;21.90;100688.00;;;;5085264;28;20820;-82
2021/07/05 04:14:49;;;;;;;4.18;1.15;;;;;21.90;100686.00;;;;5087360;28;20297;-81
2021/07/05 04:17:16;;;;;;;2.95;1.00;;;;;21.90;100676.00;;;;5083919;28;20222;-82
2021/07/05 04:19:45;;;;;;;3.97;1.40;;;;;21.80;100672.00;;;;5068085;28;20203;-82
2021/07/05 04:22:13;;;;;;;4.15;1.60;;;;;21.80;100673.00;;;;5080694;28;20311;-82
2021/07/05 04:24:41;;;;;;;2.30;1.20;;;;;21.80;100667.00;;;;5087874;28;20194;-81
2021/07/05 04:27:08;;;;;;;2.47;1.20;;;;;21.80;100674.00;;;;5086851;28;20194;-82
2021/07/05 04:29:35;;;;;;;1.63;1.02;;;;;21.80;100674.00;;;;5086658;28;20201;-82
2021/07/05 04:32:05;;;;;;;5.57;1.55;;;;;21.80;100674.00;;;;5088072;28;20575;-82
2021/07/05 04:34:32;;;;;;;2.35;1.73;;;;;21.80;100673.00;;;;5083507;28;21168;-81
2021/07/05 04:36:59;;;;;;;2.28;1.35;;;;;21.80;100670.00;;;;5079428;28;20220;-81
2021/07/05 04:39:27;;;;;;;1.98;1.40;;;;;21.80;100673.00;;;;5086921;28;20191;-82
2021/07/05 04:41:54;;;;;;;3.45;1.90;;;;;21.80;100671.00;;;;5081027;28;20222;-81
2021/07/05 04:44:22;;;;;;;1.60;1.40;;;;;21.80;100662.00;;;;5076563;28;20206;-82
2021/07/05 04:46:50;;;;;;;3.10;1.42;;;;;21.80;100665.00;;;;5085060;28;20206;-81
2021/07/05 04:49:20;;;;;;;2.45;1.17;;;;;21.80;100662.00;;;;5087417;28;20196;-82
2021/07/05 04:51:48;;;;;;;2.15;1.30;;;;;21.80;100659.00;;;;5086176;28;20190;-82
2021/07/05 04:54:15;;;;;;;1.70;1.02;;;;;21.80;100664.00;;;;5087708;28;20199;-81
2021/07/05 04:56:43;;;;;;;1.38;1.08;;;;;21.80;100665.00;;;;5087102;28;20544;-81
2021/07/05 04:59:12;;;;;;;4.47;1.40;;;;;21.80;100666.00;;;;5087655;28;20202;-81
2021/07/05 05:01:39;;;;;;;2.13;1.40;;;;;21.80;100664.00;;;;5087670;28;20225;-81
2021/07/05 05:04:07;;;;;;;2.08;1.48;;;;;21.80;100656.00;;;;5084617;28;20214;-80
2021/07/05 05:06:35;;;;;;;3.55;1.73;;;;;21.80;100655.00;;;;5091146;28;20197;-82
2021/07/05 05:09:03;;;;;;;2.83;1.42;;;;;21.80;100655.00;;;;5090634;28;20199;-80
2021/07/05 05:11:30;;;;;;;2.78;1.42;;;;;21.70;100663.00;;;;5085147;28;20506;-79
2021/07/05 05:13:57;;;;;;;3.17;1.42;;;;;21.70;100667.00;;;;5083373;28;20191;-80
2021/07/05 05:16:24;;;;;;;1.92;1.30;;;;;21.70;100671.00;;;;5084514;28;20198;-81
2021/07/05 05:18:52;;;;;;;3.88;1.65;;;;;21.70;100674.00;;;;5084339;28;20202;-81
2021/07/05 05:21:19;;;;;;;2.72;1.48;;;;;21.70;100664.00;;;;5085013;28;20222;-80
2021/07/05 05:23:47;;;;;;;2.45;1.42;;;;;21.70;100661.00;;;;5086406;28;20189;-80
2021/07/05 05:26:15;;;;;;;2.85;1.27;;;;;21.70;100655.00;;;;5070512;28;20997;-80
2021/07/05 05:28:42;;;;;;;2.17;1.20;;;;;21.70;100652.00;;;;5076686;28;20191;-78
2021/07/05 05:31:09;;;;;;;3.05;1.67;;;;;21.70;100652.00;;;;5074202;28;20196;-79
2021/07/05 05:33:36;;;;;;;2.13;1.45;;;;;21.70;100655.00;;;;5080814;28;20888;-79
2021/07/05 05:36:04;;;;;;;3.05;1.70;;;;;21.70;100661.00;;;;5070800;28;20207;-78
2021/07/05 05:38:31;;;;;;;3.80;1.85;;;;;21.70;100660.00;;;;5078908;28;20201;-78
2021/07/05 05:41:00;;;;;;;2.63;1.75;;;;;21.70;100657.00;;;;5069740;28;20655;-79
2021/07/05 05:43:27;;;;;;;3.22;1.85;;;;;21.70;100654.00;;;;5070316;28;20202;-79
2021/07/05 05:46:00;;;;;;;4.28;2.90;;;;;21.70;100656.00;;;;5068262;28;20210;-79
2021/07/05 05:48:27;;;;;;;3.08;1.60;;;;;21.70;100660.00;;;;5069612;28;20252;-81
2021/07/05 05:50:54;;;;;;;3.08;2.30;;;;;21.70;100663.00;;;;5073774;28;20191;-80
2021/07/05 05:53:22;;;;;;;3.63;1.92;;;;;21.70;100670.00;;;;5070688;28;20199;-80
2021/07/05 05:55:49;;;;;;;5.18;2.25;;;;;21.70;100675.00;;;;5080896;28;20660;-80
2021/07/05 05:58:18;;;;;;;3.05;1.65;;;;;21.60;100662.00;;;;5090034;28;20531;-81
2021/07/05 06:00:45;;;;;;;3.80;2.70;;;;;21.60;100658.00;;;;5075120;28;20278;-81
2021/07/05 06:03:12;;;;;;;3.83;2.30;;;;;21.60;100667.00;;;;5089790;28;20690;-80
2021/07/05 06:05:40;;;;;;;2.67;2.22;;;;;21.60;100659.00;;;;5088849;28;20198;-80
2021/07/05 06:08:07;;;;;;;5.45;2.70;;;;;21.60;100652.00;;;;5077983;28;20203;-80
2021/07/05 06:10:34;;;;;;;3.53;2.20;;;;;21.70;100660.00;;;;5069258;28;20692;-78
2021/07/05 06:13:02;;;;;;;4.78;2.22;;;;;21.70;100661.00;;;;5071405;28;20195;-78
2021/07/05 06:15:30;;;;;;;4.47;2.47;;;;;21.70;100655.00;;;;5086017;28;20588;-78
2021/07/05 06:17:57;;;;;;;5.25;2.65;;;;;21.70;100660.00;;;;5084992;28;20186;-79
2021/07/05 06:20:25;;;;;;;7.72;2.55;;;;;21.70;100662.00;;;;5070323;28;20677;-79
2021/07/05 06:22:54;;;;;;;3.95;2.13;;;;;21.70;100668.00;;;;5079716;28;20226;-78
2021/07/05 06:25:21;;;;;;;4.60;2.45;;;;;21.80;100664.00;;;;5080939;28;20634;-79
2021/07/05 06:27:49;;;;;;;5.32;2.58;;;;;21.80;100669.00;;;;5073496;28;20664;-79
2021/07/05 06:30:17;;;;;;;5.22;2.50;;;;;21.80;100665.00;;;;5074633;28;20207;-79
2021/07/05 06:32:46;;;;;;;3.80;2.53;;;;;21.80;100669.00;;;;5068500;28;20669;-78
2021/07/05 06:35:14;;;;;;;3.75;2.72;;;;;21.80;100669.00;;;;5069095;28;20230;-78
2021/07/05 06:37:42;;;;;;;4.55;2.13;;;;;21.80;100665.00;;;;5068850;28;20202;-78
2021/07/05 06:40:10;;;;;;;3.78;2.80;;;;;21.80;100673.00;;;;5075271;28;20202;-77
2021/07/05 06:42:37;;;;;;;6.03;2.97;;;;;21.90;100682.00;;;;5073463;28;20230;-78
2021/07/05 06:45:06;;;;;;;3.25;2.28;;;;;21.90;100686.00;;;;5070031;28;20199;-79
2021/07/05 06:47:33;;;;;;;8.00;2.97;;;;;21.90;100692.00;;;;5078656;28;20199;-77
2021/07/05 06:50:01;;;;;;;3.47;2.42;;;;;21.90;100694.00;;;;5069587;28;20203;-77
2021/07/05 06:52:32;;;;;;;4.40;2.63;;;;;22.00;100693.00;;;;5069629;28;20214;-76
2021/07/05 06:55:00;;;;;;;5.63;2.88;;;;;22.00;100690.00;;;;5068937;28;20310;-76
2021/07/05 06:57:30;;;;;;;3.95;2.42;;;;;22.00;100693.00;;;;5079474;28;20195;-76
2021/07/05 06:59:58;;;;;;;5.93;2.65;;;;;22.00;100694.00;;;;5069380;28;20205;-78
2021/07/05 07:02:25;;;;;;;4.65;2.30;;;;;22.00;100695.00;;;;5072937;28;20603;-78
2021/07/05 07:04:53;;;;;;;6.82;3.60;;;;;22.00;100690.00;;;;5069000;28;20218;-77
2021/07/05 07:07:22;;;;;;;3.70;2.28;;;;;22.10;100696.00;;;;5069142;28;20195;-77
2021/07/05 07:09:49;;;;;;;3.60;2.55;;;;;22.10;100689.00;;;;5091823;28;20201;-82
2021/07/05 07:12:16;;;;;;;3.08;2.42;;;;;22.10;100685.00;;;;5083219;28;20199;-81
2021/07/05 07:14:44;;;;;;;4.90;2.03;;;;;22.20;100694.00;;;;5071249;28;20203;-82
2021/07/05 07:17:18;;;;;;;9.88;2.95;;;;;22.20;100688.00;;;;5074086;28;20203;-82
2021/07/05 07:19:46;;;;;;;7.13;2.45;;;;;22.20;100684.00;;;;5070970;28;20242;-82
2021/07/05 07:22:13;;;;;;;5.00;2.40;;;;;22.30;100695.00;;;;5075516;28;20223;-80
2021/07/05 07:24:42;;;;;;;5.28;2.42;;;;;22.30;100699.00;;;;5067719;28;20198;-82
2021/07/05 07:27:09;;;;;;;5.78;2.97;;;;;22.40;100696.00;;;;5068626;28;20214;-79
2021/07/05 07:29:36;;;;;;;5.47;2.55;;;;;22.40;100700.00;;;;5068167;28;20566;-80
2021/07/05 07:32:04;;;;;;;4.25;2.58;;;;;22.40;100698.00;;;;5068445;28;20205;-78
2021/07/05 07:34:31;;;;;;;3.92;2.33;;;;;22.50;100699.00;;;;5067609;28;20226;-80
2021/07/05 07:37:02;;;;;;;5.60;2.13;;;;;22.60;100694.00;;;;5068496;28;20199;-81
2021/07/05 07:39:32;;;;;;;3.97;2.22;;;;;22.60;100694.00;;;;5075226;28;20202;-81
2021/07/05 07:42:01;;;;;;;5.95;2.40;;;;;22.60;100692.00;;;;5076694;28;20226;-80
2021/07/05 07:44:28;;;;;;;7.30;3.67;;;;;22.70;100694.00;;;;5068075;28;20199;-81
2021/07/05 07:46:56;;;;;;;3.35;2.33;;;;;22.70;100706.00;;;;5085318;28;20205;-82
2021/07/05 07:49:23;;;;;;;4.43;2.63;;;;;22.80;100704.00;;;;5070846;28;20190;-81
2021/07/05 07:51:50;;;;;;;4.45;2.80;;;;;22.80;100717.00;;;;5067407;28;20211;-82
2021/07/05 07:54:17;;;;;;;4.03;2.70;;;;;22.90;100714.00;;;;5075479;28;20684;-81
2021/07/05 07:56:45;;;;;;;4.07;2.53;;;;;22.90;100714.00;;;;5070946;28;20218;-81
2021/07/05 07:59:13;;;;;;;4.80;3.05;;;;;22.90;100716.00;;;;5068196;28;20979;-81
2021/07/05 08:01:40;;;;;;;4.35;2.47;;;;;22.90;100710.00;;;;5069595;28;20230;-82
2021/07/05 08:04:08;;;;;;;5.25;2.40;;;;;23.00;100714.00;;;;5083787;28;20217;-82
2021/07/05 08:06:36;;;;;;;4.85;3.00;;;;;23.00;100717.00;;;;5074304;28;20614;-82
2021/07/05 08:09:04;;;;;;;3.80;2.78;;;;;23.00;100716.00;;;;5077724;28;20202;-81
2021/07/05 08:11:32;;;;;;;6.32;2.92;;;;;23.00;100722.00;;;;5076867;28;20518;-81
2021/07/05 08:14:00;;;;;;;6.07;2.72;;;;;23.00;100718.00;;;;5074036;28;20727;-80
2021/07/05 08:16:30;;;;;;;7.30;2.90;;;;;23.00;100719.00;;;;5074273;28;20192;-82
2021/07/05 08:18:57;;;;;;;4.00;2.72;;;;;23.00;100720.00;;;;5069114;28;20207;-81
2021/07/05 08:21:25;;;;;;;5.97;3.20;;;;;23.10;100720.00;;;;5074442;28;20675;-81
2021/07/05 08:23:52;;;;;;;4.70;2.97;;;;;23.10;100722.00;;;;5077227;28;20211;-81
2021/07/05 08:26:19;;;;;;;5.57;3.30;;;;;23.10;100721.00;;;;5068183;28;20207;-80
2021/07/05 08:28:47;;;;;;;5.00;3.65;;;;;23.20;100720.00;;;;5076328;28;20232;-79
2021/07/05 08:31:14;;;;;;;5.72;3.55;;;;;23.20;100723.00;;;;5074391;28;20248;-81
2021/07/05 08:33:46;;;;;;;6.38;4.57;;;;;23.20;100725.00;;;;5080502;28;20241;-81
2021/07/05 08:36:14;;;;;;;6.22;3.33;;;;;23.20;100727.00;;;;5068836;28;20199;-82
2021/07/05 08:38:41;;;;;;;4.25;3.58;;;;;23.30;100737.00;;;;5076649;28;20671;-83
2021/07/05 08:41:08;;;;;;;4.97;3.47;;;;;23.30;100732.00;;;;5091963;28;20194;-83
2021/07/05 08:43:37;;;;;;;8.57;3.63;;;;;23.30;100729.00;;;;5091062;28;20613;-83
2021/07/05 08:46:06;;;;;;;5.68;3.47;;;;;23.40;100728.00;;;;5091031;28;20566;-84
2021/07/05 08:48:36;;;;;;;5.05;3.75;;;;;23.40;100725.00;;;;5091753;28;20660;-83
2021/07/05 08:51:08;;;;;;;5.10;3.50;;;;;23.40;100724.00;;;;5091837;28;20198;-82
2021/07/05 08:53:37;;;;;;;5.63;3.22;;;;;23.60;100718.00;;;;5091108;28;20206;-84
2021/07/05 08:56:04;;;;;;;6.53;3.85;;;;;23.60;100726.00;;;;5091627;28;20205;-84
2021/07/05 08:58:32;;;;;;;5.07;3.30;;;;;23.70;100723.00;;;;5091388;28;20206;-83
2021/07/05 09:00:59;;;;;;;3.80;3.40;;;;;23.90;100728.00;;;;5091760;28;20206;-83
2021/07/05 09:03:29;;;;;;;4.97;3.50;;;;;24.00;100732.00;;;;5090677;28;20234;-82
2021/07/05 09:06:12;;;;;;;5.68;3.45;;;;;24.00;100727.00;;;;5091345;28;20198;-82
2021/07/05 09:08:40;;;;;;;4.65;2.90;;;;;24.10;100723.00;;;;5080971;28;20208;-82
2021/07/05 09:11:09;;;;;;;4.88;3.85;;;;;24.20;100720.00;;;;5071327;28;20206;-82
2021/07/05 09:13:47;;;;;;;5.38;3.33;;;;;24.20;100716.00;;;;5071080;28;20203;-82
2021/07/05 09:16:28;;;;;;;5.40;3.22;;;;;24.40;100718.00;;;;5071604;28;20206;-83
2021/07/05 09:18:55;;;;;;;5.15;3.47;;;;;24.60;100714.00;;;;5074554;28;20206;-82
2021/07/05 09:21:25;;;;;;;3.53;3.10;;;;;24.70;100713.00;;;;5090635;28;20746;-83
2021/07/05 09:23:57;;;;;;;6.60;4.15;;;;;24.80;100709.00;;;;5091103;28;20225;-83
2021/07/05 09:26:27;;;;;;;5.50;3.67;;;;;24.90;100708.00;;;;5091364;28;20206;-83
2021/07/05 09:28:56;;;;;;;4.15;2.75;;;;;25.10;100704.00;;;;5091237;28;20209;-83
2021/07/05 09:31:36;;;;;;;7.60;3.10;;;;;25.10;100713.00;;;;5087327;28;20214;-84
2021/07/05 09:34:05;;;;;;;4.10;3.25;;;;;25.30;100710.00;;;;5070398;28;20234;-82
2021/07/05 09:36:34;;;;;;;6.10;4.07;;;;;25.30;100712.00;;;;5071036;28;20203;-82
2021/07/05 09:39:13;;;;;;;4.15;3.28;;;;;25.30;100711.00;;;;5070655;28;20199;-82
2021/07/05 09:41:40;;;;;;;4.82;3.10;;;;;25.40;100710.00;;;;5070114;28;20199;-82
2021/07/05 09:44:13;;;;;;;9.15;3.80;;;;;25.40;100720.00;;;;5070183;28;20201;-82
2021/07/05 09:46:43;;;;;;;3.50;3.20;;;;;25.40;100721.00;;;;5070314;28;20195;-82
2021/07/05 09:49:17;;;;;;;7.03;3.78;;;;;25.30;100727.00;;;;5069450;28;20199;-79
2021/07/05 09:51:47;;;;;;;4.20;2.92;;;;;25.40;100719.00;;;;5070307;28;20194;-80
2021/07/05 09:54:18;;;;;;;7.80;3.85;;;;;25.40;100721.00;;;;5070773;28;20293;-79
2021/07/05 09:56:46;;;;;;;4.38;3.55;;;;;25.40;100723.00;;;;5081773;28;20214;-80
2021/07/05 09:59:18;;;;;;;6.22;4.32;;;;;25.30;100720.00;;;;5090906;28;20202;-80
2021/07/05 10:01:48;;;;;;;6.18;3.65;;;;;25.30;100717.00;;;;5089832;28;20190;-79
2021/07/05 10:04:23;;;;;;;4.95;4.20;;;;;25.30;100714.00;;;;5073661;28;20226;-80
2021/07/05 10:06:52;;;;;;;5.18;4.07;;;;;25.30;100730.00;;;;5088021;28;20578;-79
2021/07/05 10:09:21;;;;;;;5.80;3.75;;;;;25.20;100724.00;;;;5088637;28;20224;-79
2021/07/05 10:11:49;;;;;;;7.15;4.20;;;;;25.20;100721.00;;;;5107706;28;20434;-81
2021/07/05 10:14:22;;;;;;;6.30;3.90;;;;;25.20;100732.00;;;;5071080;28;20700;-79
2021/07/05 10:16:53;;;;;;;5.93;3.42;;;;;25.20;100731.00;;;;5070319;28;20203;-81
2021/07/05 10:19:20;;;;;;;4.40;3.75;;;;;25.20;100730.00;;;;5071662;28;20668;-81
2021/07/05 10:21:47;;;;;;;5.50;3.20;;;;;25.10;100722.00;;;;5089560;28;20283;-80
2021/07/05 10:24:16;;;;;;;4.75;3.40;;;;;25.10;100718.00;;;;5088951;28;20726;-81
2021/07/05 10:26:45;;;;;;;3.72;2.63;;;;;25.10;100723.00;;;;5088525;28;20222;-81
2021/07/05 10:29:12;;;;;;;3.35;3.00;;;;;25.10;100728.00;;;;5090167;28;20652;-79
2021/07/05 10:31:41;;;;;;;7.03;3.58;;;;;25.10;100718.00;;;;5088683;28;20555;-80
2021/07/05 10:34:09;;;;;;;4.28;2.75;;;;;25.20;100719.00;;;;5080454;28;20226;-80
2021/07/05 10:36:40;;;;;;;4.68;2.85;;;;;25.20;100713.00;;;;5068913;28;20206;-78
2021/07/05 10:39:09;;;;;;;4.65;2.55;;;;;25.20;100721.00;;;;5068856;28;20652;-78
2021/07/05 10:41:41;;;;;;;4.60;2.58;;;;;25.10;100724.00;;;;5069081;28;20195;-79
2021/07/05 10:44:11;;;;;;;2.10;1.85;;;;;25.20;100718.00;;;;5075111;28;20595;-79
2021/07/05 10:46:41;;;;;;;4.85;2.80;;;;;25.20;100715.00;;;;5089888;28;20199;-78
2021/07/05 10:49:09;;;;;;;4.15;2.63;;;;;25.20;100722.00;;;;5089146;28;20209;-77
2021/07/05 10:51:44;;;;;;;3.67;2.25;;;;;25.20;100722.00;;;;5089100;28;20202;-78
2021/07/05 10:54:11;;;;;;;6.65;2.85;;;;;25.20;100722.00;;;;5090004;28;20200;-77
2021/07/05 10:56:45;;;;;;;5.45;2.85;;;;;25.20;100725.00;;;;5089576;28;20573;-78
2021/07/05 10:59:35;;;;;;;5.45;2.75;;;;;25.10;100735.00;;;;5089011;28;20352;-78
2021/07/05 11:02:02;;;;;;;3.85;2.63;;;;;25.20;100727.00;;;;5088591;28;20205;-78
2021/07/05 11:04:31;;;;;;;3.05;2.53;;;;;25.20;100731.00;;;;5089521;28;20229;-78
2021/07/05 11:06:59;;;;;;;3.20;2.72;;;;;25.30;100728.00;;;;5090268;28;20195;-79
2021/07/05 11:09:27;;;;;;;2.97;2.50;;;;;25.30;100729.00;;;;5075478;28;20642;-78
2021/07/05 11:11:58;;;;;;;3.65;3.05;;;;;25.30;100725.00;;;;5068699;28;20202;-78
2021/07/05 11:14:28;;;;;;;5.45;2.97;;;;;25.30;100719.00;;;;5069008;28;20230;-78
2021/07/05 11:17:07;;;;;;;4.45;2.72;;;;;25.30;100728.00;;;;5069465;28;20199;-78
2021/07/05 11:19:40;;;;;;;5.55;3.63;;;;;25.30;100730.00;;;;5069346;28;20233;-79
2021/07/05 11:22:17;;;;;;;4.90;2.63;;;;;25.40;100724.00;;;;5076475;28;20195;-78
2021/07/05 11:24:53;;;;;;;4.60;3.00;;;;;25.40;100732.00;;;;5088579;28;20208;-78
2021/07/05 11:27:48;;;;;;;3.55;2.85;;;;;25.30;100731.00;;;;5088663;28;20205;-78
2021/07/05 11:30:21;;;;;;;4.00;2.88;;;;;25.50;100723.00;;;;5089183;28;20279;-78
2021/07/05 11:32:49;;;;;;;7.70;3.45;;;;;25.50;100723.00;;;;5088764;28;20482;-79
2021/07/05 11:35:37;;;;;;;7.38;3.22;;;;;25.30;100726.00;;;;5088647;28;20205;-79
2021/07/05 11:38:08;;;;;;;5.88;3.00;;;;;25.40;100728.00;;;;5089403;28;20201;-78
2021/07/05 11:40:55;;;;;;;3.00;2.78;;;;;25.30;100728.00;;;;5089094;28;20213;-79
2021/07/05 11:43:44;;;;;;;6.45;2.92;;;;;25.30;100734.00;;;;5090038;28;20222;-78
2021/07/05 11:46:16;;;;;;;3.47;1.90;;;;;25.30;100741.00;;;;5089119;28;20198;-78
2021/07/05 11:48:57;;;;;;;7.25;2.97;;;;;25.20;100751.00;;;;5088446;28;20210;-78
2021/07/05 11:51:28;;;;;;;3.50;2.33;;;;;25.20;100746.00;;;;5079692;28;20198;-78
2021/07/05 11:53:58;;;;;;;3.88;1.77;;;;;25.10;100752.00;;;;5068435;28;20692;-79
2021/07/05 11:56:32;;;;;;;4.80;2.63;;;;;25.10;100750.00;;;;5077062;28;20194;-80
2021/07/05 11:59:02;;;;;;;2.85;2.33;;;;;25.00;100753.00;;;;5089121;28;20574;-77
2021/07/05 12:01:31;;;;;;;2.58;1.75;;;;;25.00;100755.00;;;;5086988;28;20194;-79
2021/07/05 12:04:00;;;;;;;2.35;1.73;;;;;24.90;100751.00;;;;5081653;28;20222;-80
2021/07/05 12:06:29;;;;;;;3.42;1.80;;;;;24.80;100752.00;;;;5082054;28;20217;-79
2021/07/05 12:08:58;;;;;;;2.83;2.03;;;;;24.70;100757.00;;;;5078211;28;20645;-79
2021/07/05 12:11:37;;;;;;;2.38;1.67;;;;;24.60;100757.00;;;;5082416;28;20224;-80
2021/07/05 12:14:09;;;;;;;2.35;1.73;;;;;24.60;100757.00;;;;5068166;28;20321;-79
2021/07/05 12:16:38;;;;;;;2.22;1.60;;;;;24.60;100755.00;;;;5068321;28;20450;-79